sensor_id;sensor_type;location;lat;lon;timestamp;pressure;altitude;pressure_sealevel;temperature;humidity
55679;BME280;41573;51.446;-2.018;2023-07-13T00:01:54;100749.44;;;17.87;nan
55679;BME280;41573;51.446;-2.018;2023-07-13T00:04:22;100754.69;;;17.88;nan
55679;BME280;41573;51.446;-2.018;2023-07-13T00:06:48;100749.72;;;17.84;nan
55679;BME280;41573;51.446;-2.018;2023-07-13T00:09:16;100752.41;;;17.84;nan
55679;BME280;41573;51.446;-2.018;2023-07-13T00:11:43;100753.06;;;17.76;nan
55679;BME280;41573;51.446;-2.018;2023-07-13T00:14:09;100750.09;;;17.79;nan
55679;BME280;41573;51.446;-2.018;2023-07-13T00:16:37;100746.38;;;17.70;nan
55679;BME280;41573;51.446;-2.018;2023-07-13T00:19:03;100749.81;;;17.72;nan
55679;BME280;41573;51.446;-2.018;2023-07-13T00:21:29;100750.91;;;17.70;nan
55679;BME280;41573;51.446;-2.018;2023-07-13T00:23:54;100746.38;;;17.70;nan
55679;BME280;41573;51.446;-2.018;2023-07-13T00:26:20;100747.91;;;17.63;nan
55679;BME280;41573;51.446;-2.018;2023-07-13T00:28:46;100750.59;;;17.63;nan
55679;BME280;41573;51.446;-2.018;2023-07-13T00:31:12;100741.16;;;17.79;nan
55679;BME280;41573;51.446;-2.018;2023-07-13T00:33:39;100759.97;;;17.69;nan
55679;BME280;41573;51.446;-2.018;2023-07-13T00:36:05;100756.81;;;17.64;nan
55679;BME280;41573;51.446;-2.018;2023-07-13T00:38:30;100753.47;;;17.71;nan
55679;BME280;41573;51.446;-2.018;2023-07-13T00:40:56;100759.66;;;17.62;nan
55679;BME280;41573;51.446;-2.018;2023-07-13T00:43:23;100757.09;;;17.61;nan
55679;BME280;41573;51.446;-2.018;2023-07-13T00:48:19;100758.34;;;17.56;nan
55679;BME280;41573;51.446;-2.018;2023-07-13T00:50:48;100763.16;;;17.53;nan
55679;BME280;41573;51.446;-2.018;2023-07-13T00:53:16;100758.56;;;17.44;nan
55679;BME280;41573;51.446;-2.018;2023-07-13T00:55:42;100761.25;;;17.44;nan
55679;BME280;41573;51.446;-2.018;2023-07-13T00:58:08;100763.25;;;17.42;nan
55679;BME280;41573;51.446;-2.018;2023-07-13T01:00:36;100760.81;;;17.38;nan
55679;BME280;41573;51.446;-2.018;2023-07-13T01:03:03;100768.03;;;17.38;nan
55679;BME280;41573;51.446;-2.018;2023-07-13T01:05:30;100756.41;;;17.37;nan
55679;BME280;41573;51.446;-2.018;2023-07-13T01:07:57;100764.50;;;17.37;nan
55679;BME280;41573;51.446;-2.018;2023-07-13T01:10:25;100764.28;;;17.29;nan
55679;BME280;41573;51.446;-2.018;2023-07-13T01:12:51;100760.75;;;17.29;nan
55679;BME280;41573;51.446;-2.018;2023-07-13T01:15:40;100759.75;;;17.30;nan
55679;BME280;41573;51.446;-2.018;2023-07-13T01:18:26;100756.94;;;17.31;nan
55679;BME280;41573;51.446;-2.018;2023-07-13T01:21:03;100762.06;;;17.34;nan
55679;BME280;41573;51.446;-2.018;2023-07-13T01:23:30;100745.91;;;17.34;nan
55679;BME280;41573;51.446;-2.018;2023-07-13T01:25:57;100749.84;;;17.30;nan
55679;BME280;41573;51.446;-2.018;2023-07-13T01:28:23;100740.06;;;17.29;nan
55679;BME280;41573;51.446;-2.018;2023-07-13T01:30:52;100737.38;;;17.29;nan
55679;BME280;41573;51.446;-2.018;2023-07-13T01:33:18;100743.88;;;17.27;nan
55679;BME280;41573;51.446;-2.018;2023-07-13T01:35:45;100736.47;;;17.19;nan
55679;BME280;41573;51.446;-2.018;2023-07-13T01:38:12;100749.78;;;17.20;nan
55679;BME280;41573;51.446;-2.018;2023-07-13T01:40:39;100753.25;;;17.11;nan
55679;BME280;41573;51.446;-2.018;2023-07-13T01:43:04;100751.69;;;17.09;nan
55679;BME280;41573;51.446;-2.018;2023-07-13T01:45:30;100744.53;;;16.98;nan
55679;BME280;41573;51.446;-2.018;2023-07-13T01:47:56;100753.91;;;17.03;nan
55679;BME280;41573;51.446;-2.018;2023-07-13T01:50:21;100745.72;;;17.05;nan
55679;BME280;41573;51.446;-2.018;2023-07-13T01:52:47;100748.94;;;16.99;nan
55679;BME280;41573;51.446;-2.018;2023-07-13T01:55:12;100739.53;;;16.93;nan
55679;BME280;41573;51.446;-2.018;2023-07-13T01:57:39;100747.94;;;17.00;nan
55679;BME280;41573;51.446;-2.018;2023-07-13T02:00:05;100742.53;;;17.00;nan
55679;BME280;41573;51.446;-2.018;2023-07-13T02:02:31;100753.31;;;17.00;nan
55679;BME280;41573;51.446;-2.018;2023-07-13T02:04:57;100754.69;;;16.94;nan
55679;BME280;41573;51.446;-2.018;2023-07-13T02:07:22;100751.53;;;16.89;nan
55679;BME280;41573;51.446;-2.018;2023-07-13T02:09:47;100748.72;;;16.91;nan
55679;BME280;41573;51.446;-2.018;2023-07-13T02:12:13;100747.13;;;16.88;nan
55679;BME280;41573;51.446;-2.018;2023-07-13T02:14:38;100746.75;;;16.93;nan
55679;BME280;41573;51.446;-2.018;2023-07-13T02:17:04;100746.25;;;16.87;nan
55679;BME280;41573;51.446;-2.018;2023-07-13T02:19:30;100737.00;;;16.92;nan
55679;BME280;41573;51.446;-2.018;2023-07-13T02:21:55;100739.16;;;16.86;nan
55679;BME280;41573;51.446;-2.018;2023-07-13T02:24:20;100743.09;;;16.82;nan
55679;BME280;41573;51.446;-2.018;2023-07-13T02:26:46;100735.84;;;16.94;nan
55679;BME280;41573;51.446;-2.018;2023-07-13T02:29:12;100740.88;;;16.99;nan
55679;BME280;41573;51.446;-2.018;2023-07-13T02:31:37;100734.88;;;16.95;nan
55679;BME280;41573;51.446;-2.018;2023-07-13T02:34:03;100744.31;;;16.89;nan
55679;BME280;41573;51.446;-2.018;2023-07-13T02:36:29;100738.19;;;16.87;nan
55679;BME280;41573;51.446;-2.018;2023-07-13T02:38:55;100737.00;;;16.80;nan
55679;BME280;41573;51.446;-2.018;2023-07-13T02:41:20;100738.50;;;16.73;nan
55679;BME280;41573;51.446;-2.018;2023-07-13T02:43:46;100742.03;;;16.74;nan
55679;BME280;41573;51.446;-2.018;2023-07-13T02:46:11;100745.69;;;16.72;nan
55679;BME280;41573;51.446;-2.018;2023-07-13T02:48:38;100738.63;;;16.71;nan
55679;BME280;41573;51.446;-2.018;2023-07-13T02:51:03;100741.94;;;16.64;nan
55679;BME280;41573;51.446;-2.018;2023-07-13T02:53:29;100739.53;;;16.61;nan
55679;BME280;41573;51.446;-2.018;2023-07-13T02:55:55;100735.59;;;16.65;nan
55679;BME280;41573;51.446;-2.018;2023-07-13T02:58:20;100733.41;;;16.59;nan
55679;BME280;41573;51.446;-2.018;2023-07-13T03:00:47;100737.31;;;16.66;nan
55679;BME280;41573;51.446;-2.018;2023-07-13T03:03:13;100740.22;;;16.63;nan
55679;BME280;41573;51.446;-2.018;2023-07-13T03:05:40;100730.25;;;16.53;nan
55679;BME280;41573;51.446;-2.018;2023-07-13T03:08:07;100734.31;;;16.48;nan
55679;BME280;41573;51.446;-2.018;2023-07-13T03:10:32;100730.53;;;16.50;nan
55679;BME280;41573;51.446;-2.018;2023-07-13T03:12:58;100729.31;;;15.88;nan
55679;BME280;41573;51.446;-2.018;2023-07-13T03:15:23;100731.59;;;15.59;nan
55679;BME280;41573;51.446;-2.018;2023-07-13T03:17:49;100736.59;;;15.63;nan
55679;BME280;41573;51.446;-2.018;2023-07-13T03:20:15;100747.44;;;15.50;nan
55679;BME280;41573;51.446;-2.018;2023-07-13T03:22:40;100744.03;;;15.48;nan
55679;BME280;41573;51.446;-2.018;2023-07-13T03:25:07;100745.88;;;15.48;nan
55679;BME280;41573;51.446;-2.018;2023-07-13T03:27:33;100743.66;;;15.42;nan
55679;BME280;41573;51.446;-2.018;2023-07-13T03:29:58;100745.22;;;15.33;nan
55679;BME280;41573;51.446;-2.018;2023-07-13T03:32:23;100745.84;;;15.37;nan
55679;BME280;41573;51.446;-2.018;2023-07-13T03:34:49;100748.78;;;15.45;nan
55679;BME280;41573;51.446;-2.018;2023-07-13T03:37:14;100744.97;;;15.36;nan
55679;BME280;41573;51.446;-2.018;2023-07-13T03:39:39;100745.72;;;15.38;nan
55679;BME280;41573;51.446;-2.018;2023-07-13T03:42:05;100747.53;;;15.38;nan
55679;BME280;41573;51.446;-2.018;2023-07-13T03:44:31;100746.44;;;15.40;nan
55679;BME280;41573;51.446;-2.018;2023-07-13T03:46:56;100754.63;;;15.39;nan
55679;BME280;41573;51.446;-2.018;2023-07-13T03:49:22;100750.72;;;15.43;nan
55679;BME280;41573;51.446;-2.018;2023-07-13T03:51:47;100748.28;;;15.40;nan
55679;BME280;41573;51.446;-2.018;2023-07-13T03:54:12;100751.56;;;15.43;nan
55679;BME280;41573;51.446;-2.018;2023-07-13T03:56:38;100752.19;;;15.47;nan
55679;BME280;41573;51.446;-2.018;2023-07-13T03:59:03;100747.81;;;15.46;nan
55679;BME280;41573;51.446;-2.018;2023-07-13T04:01:29;100753.03;;;15.36;nan
55679;BME280;41573;51.446;-2.018;2023-07-13T04:03:54;100742.66;;;15.31;nan
55679;BME280;41573;51.446;-2.018;2023-07-13T04:06:22;100749.75;;;15.32;nan
55679;BME280;41573;51.446;-2.018;2023-07-13T04:08:50;100745.09;;;15.34;nan
55679;BME280;41573;51.446;-2.018;2023-07-13T04:11:18;100749.25;;;15.27;nan
55679;BME280;41573;51.446;-2.018;2023-07-13T04:13:43;100746.56;;;15.27;nan
55679;BME280;41573;51.446;-2.018;2023-07-13T04:16:09;100751.91;;;15.27;nan
55679;BME280;41573;51.446;-2.018;2023-07-13T04:18:35;100744.13;;;15.24;nan
55679;BME280;41573;51.446;-2.018;2023-07-13T04:21:00;100755.56;;;15.26;nan
55679;BME280;41573;51.446;-2.018;2023-07-13T04:23:25;100748.50;;;15.25;nan
55679;BME280;41573;51.446;-2.018;2023-07-13T04:25:52;100753.63;;;15.28;nan
55679;BME280;41573;51.446;-2.018;2023-07-13T04:28:19;100748.50;;;15.25;nan
55679;BME280;41573;51.446;-2.018;2023-07-13T04:30:45;100739.13;;;15.20;nan
55679;BME280;41573;51.446;-2.018;2023-07-13T04:33:10;100746.56;;;15.27;nan
55679;BME280;41573;51.446;-2.018;2023-07-13T04:35:36;100753.63;;;15.28;nan
55679;BME280;41573;51.446;-2.018;2023-07-13T04:38:02;100745.84;;;15.25;nan
55679;BME280;41573;51.446;-2.018;2023-07-13T04:40:28;100753.16;;;15.34;nan
55679;BME280;41573;51.446;-2.018;2023-07-13T04:42:54;100754.13;;;15.33;nan
55679;BME280;41573;51.446;-2.018;2023-07-13T04:45:20;100741.19;;;15.27;nan
55679;BME280;41573;51.446;-2.018;2023-07-13T04:47:45;100727.06;;;15.25;nan
55679;BME280;41573;51.446;-2.018;2023-07-13T04:50:12;100735.25;;;15.35;nan
55679;BME280;41573;51.446;-2.018;2023-07-13T04:52:40;100727.66;;;15.40;nan
55679;BME280;41573;51.446;-2.018;2023-07-13T04:55:06;100711.31;;;15.43;nan
55679;BME280;41573;51.446;-2.018;2023-07-13T04:57:31;100699.75;;;15.54;nan
55679;BME280;41573;51.446;-2.018;2023-07-13T04:59:56;100697.69;;;15.46;nan
55679;BME280;41573;51.446;-2.018;2023-07-13T05:02:26;100681.69;;;15.45;nan
55679;BME280;41573;51.446;-2.018;2023-07-13T05:04:52;100684.03;;;15.49;nan
55679;BME280;41573;51.446;-2.018;2023-07-13T05:07:17;100671.44;;;15.50;nan
55679;BME280;41573;51.446;-2.018;2023-07-13T05:09:42;100666.44;;;15.57;nan
55679;BME280;41573;51.446;-2.018;2023-07-13T05:12:09;100651.31;;;15.67;nan
55679;BME280;41573;51.446;-2.018;2023-07-13T05:14:35;100639.22;;;15.73;nan
55679;BME280;41573;51.446;-2.018;2023-07-13T05:17:00;100641.41;;;15.79;nan
55679;BME280;41573;51.446;-2.018;2023-07-13T05:19:26;100633.13;;;15.82;nan
55679;BME280;41573;51.446;-2.018;2023-07-13T05:21:52;100631.16;;;15.84;nan
55679;BME280;41573;51.446;-2.018;2023-07-13T05:24:17;100624.97;;;15.83;nan
55679;BME280;41573;51.446;-2.018;2023-07-13T05:26:43;100629.44;;;15.94;nan
55679;BME280;41573;51.446;-2.018;2023-07-13T05:29:09;100629.13;;;16.09;nan
55679;BME280;41573;51.446;-2.018;2023-07-13T05:31:34;100634.03;;;16.15;nan
55679;BME280;41573;51.446;-2.018;2023-07-13T05:33:59;100624.81;;;16.17;nan
55679;BME280;41573;51.446;-2.018;2023-07-13T05:36:25;100628.91;;;16.12;nan
55679;BME280;41573;51.446;-2.018;2023-07-13T05:38:50;100632.03;;;16.17;nan
55679;BME280;41573;51.446;-2.018;2023-07-13T05:41:15;100640.25;;;16.15;nan
55679;BME280;41573;51.446;-2.018;2023-07-13T05:43:41;100635.34;;;16.20;nan
55679;BME280;41573;51.446;-2.018;2023-07-13T05:46:06;100644.16;;;16.11;nan
55679;BME280;41573;51.446;-2.018;2023-07-13T05:48:31;100646.72;;;16.13;nan
55679;BME280;41573;51.446;-2.018;2023-07-13T05:50:57;100646.97;;;16.10;nan
55679;BME280;41573;51.446;-2.018;2023-07-13T05:53:23;100651.63;;;16.08;nan
55679;BME280;41573;51.446;-2.018;2023-07-13T05:55:48;100648.56;;;16.12;nan
55679;BME280;41573;51.446;-2.018;2023-07-13T05:58:16;100653.28;;;16.20;nan
55679;BME280;41573;51.446;-2.018;2023-07-13T06:00:41;100656.34;;;16.15;nan
55679;BME280;41573;51.446;-2.018;2023-07-13T06:03:07;100658.16;;;16.26;nan
55679;BME280;41573;51.446;-2.018;2023-07-13T06:05:33;100661.25;;;16.43;nan
55679;BME280;41573;51.446;-2.018;2023-07-13T06:08:00;100661.22;;;16.54;nan
55679;BME280;41573;51.446;-2.018;2023-07-13T06:10:25;100659.91;;;16.69;nan
55679;BME280;41573;51.446;-2.018;2023-07-13T06:12:50;100663.66;;;16.78;nan
55679;BME280;41573;51.446;-2.018;2023-07-13T06:15:16;100661.38;;;16.74;nan
55679;BME280;41573;51.446;-2.018;2023-07-13T06:17:41;100665.03;;;16.72;nan
55679;BME280;41573;51.446;-2.018;2023-07-13T06:20:07;100671.78;;;16.67;nan
55679;BME280;41573;51.446;-2.018;2023-07-13T06:22:33;100672.97;;;16.74;nan
55679;BME280;41573;51.446;-2.018;2023-07-13T06:24:58;100668.47;;;16.75;nan
55679;BME280;41573;51.446;-2.018;2023-07-13T06:27:24;100672.88;;;16.64;nan
55679;BME280;41573;51.446;-2.018;2023-07-13T06:29:49;100667.19;;;16.58;nan
55679;BME280;41573;51.446;-2.018;2023-07-13T06:32:14;100669.63;;;16.61;nan
55679;BME280;41573;51.446;-2.018;2023-07-13T06:34:40;100670.72;;;16.58;nan
55679;BME280;41573;51.446;-2.018;2023-07-13T06:37:05;100688.84;;;16.56;nan
55679;BME280;41573;51.446;-2.018;2023-07-13T06:39:31;100675.56;;;16.64;nan
55679;BME280;41573;51.446;-2.018;2023-07-13T06:41:57;100693.75;;;16.72;nan
55679;BME280;41573;51.446;-2.018;2023-07-13T06:44:22;100693.63;;;16.74;nan
55679;BME280;41573;51.446;-2.018;2023-07-13T06:46:47;100680.91;;;16.76;nan
55679;BME280;41573;51.446;-2.018;2023-07-13T06:49:13;100686.41;;;16.74;nan
55679;BME280;41573;51.446;-2.018;2023-07-13T06:51:38;100692.44;;;16.66;nan
55679;BME280;41573;51.446;-2.018;2023-07-13T06:54:04;100691.53;;;16.56;nan
55679;BME280;41573;51.446;-2.018;2023-07-13T06:56:29;100687.25;;;16.53;nan
55679;BME280;41573;51.446;-2.018;2023-07-13T06:58:55;100687.78;;;16.47;nan
55679;BME280;41573;51.446;-2.018;2023-07-13T07:01:20;100679.59;;;16.49;nan
55679;BME280;41573;51.446;-2.018;2023-07-13T07:03:45;100681.53;;;16.47;nan
55679;BME280;41573;51.446;-2.018;2023-07-13T07:06:18;100689.06;;;16.53;nan
55679;BME280;41573;51.446;-2.018;2023-07-13T07:08:44;100690.66;;;16.55;nan
55679;BME280;41573;51.446;-2.018;2023-07-13T07:11:13;100672.72;;;16.56;nan
55679;BME280;41573;51.446;-2.018;2023-07-13T07:13:39;100678.66;;;16.60;nan
55679;BME280;41573;51.446;-2.018;2023-07-13T07:16:04;100689.91;;;16.65;nan
55679;BME280;41573;51.446;-2.018;2023-07-13T07:18:29;100690.03;;;16.63;nan
55679;BME280;41573;51.446;-2.018;2023-07-13T07:20:55;100697.56;;;16.69;nan
55679;BME280;41573;51.446;-2.018;2023-07-13T07:23:20;100697.97;;;16.86;nan
55679;BME280;41573;51.446;-2.018;2023-07-13T07:25:45;100708.88;;;17.05;nan
55679;BME280;41573;51.446;-2.018;2023-07-13T07:28:12;100716.81;;;17.28;nan
55679;BME280;41573;51.446;-2.018;2023-07-13T07:30:42;100724.09;;;17.37;nan
55679;BME280;41573;51.446;-2.018;2023-07-13T07:33:08;100729.28;;;17.50;nan
55679;BME280;41573;51.446;-2.018;2023-07-13T07:35:33;100735.97;;;17.56;nan
55679;BME280;41573;51.446;-2.018;2023-07-13T07:37:59;100744.44;;;17.51;nan
55679;BME280;41573;51.446;-2.018;2023-07-13T07:40:24;100748.53;;;17.46;nan
55679;BME280;41573;51.446;-2.018;2023-07-13T07:42:50;100755.34;;;17.50;nan
55679;BME280;41573;51.446;-2.018;2023-07-13T07:45:16;100762.69;;;17.48;nan
55679;BME280;41573;51.446;-2.018;2023-07-13T07:47:41;100775.44;;;17.46;nan
55679;BME280;41573;51.446;-2.018;2023-07-13T07:50:07;100780.84;;;17.46;nan
55679;BME280;41573;51.446;-2.018;2023-07-13T07:52:32;100784.63;;;17.43;nan
55679;BME280;41573;51.446;-2.018;2023-07-13T07:54:57;100790.16;;;17.42;nan
55679;BME280;41573;51.446;-2.018;2023-07-13T07:57:23;100790.88;;;17.44;nan
55679;BME280;41573;51.446;-2.018;2023-07-13T07:59:48;100804.59;;;17.40;nan
55679;BME280;41573;51.446;-2.018;2023-07-13T08:02:14;100809.63;;;18.48;nan
55679;BME280;41573;51.446;-2.018;2023-07-13T08:04:39;100809.94;;;18.54;nan
55679;BME280;41573;51.446;-2.018;2023-07-13T08:07:05;100829.81;;;18.63;nan
55679;BME280;41573;51.446;-2.018;2023-07-13T08:09:30;100827.56;;;18.58;nan
55679;BME280;41573;51.446;-2.018;2023-07-13T08:11:56;100830.81;;;18.52;nan
55679;BME280;41573;51.446;-2.018;2023-07-13T08:14:21;100837.63;;;18.56;nan
55679;BME280;41573;51.446;-2.018;2023-07-13T08:16:46;100839.03;;;18.51;nan
55679;BME280;41573;51.446;-2.018;2023-07-13T08:19:12;100836.88;;;18.44;nan
55679;BME280;41573;51.446;-2.018;2023-07-13T08:21:37;100841.94;;;18.28;nan
55679;BME280;41573;51.446;-2.018;2023-07-13T08:24:03;100846.50;;;18.37;nan
55679;BME280;41573;51.446;-2.018;2023-07-13T08:26:29;100855.91;;;18.43;nan
55679;BME280;41573;51.446;-2.018;2023-07-13T08:28:54;100857.56;;;18.34;nan
55679;BME280;41573;51.446;-2.018;2023-07-13T08:31:19;100858.41;;;18.35;nan
55679;BME280;41573;51.446;-2.018;2023-07-13T08:33:45;100855.72;;;18.35;nan
55679;BME280;41573;51.446;-2.018;2023-07-13T08:36:10;100854.19;;;18.32;nan
55679;BME280;41573;51.446;-2.018;2023-07-13T08:38:36;100858.00;;;18.30;nan
55679;BME280;41573;51.446;-2.018;2023-07-13T08:41:11;100854.28;;;18.31;nan
55679;BME280;41573;51.446;-2.018;2023-07-13T08:43:37;100864.97;;;18.32;nan
55679;BME280;41573;51.446;-2.018;2023-07-13T08:46:15;100858.41;;;18.25;nan
55679;BME280;41573;51.446;-2.018;2023-07-13T08:48:48;100866.22;;;18.28;nan
55679;BME280;41573;51.446;-2.018;2023-07-13T08:53:59;100866.97;;;18.40;nan
55679;BME280;41573;51.446;-2.018;2023-07-13T08:56:28;100868.06;;;18.37;nan
55679;BME280;41573;51.446;-2.018;2023-07-13T08:59:09;100866.13;;;18.39;nan
55679;BME280;41573;51.446;-2.018;2023-07-13T09:04:30;100864.16;;;18.51;nan
55679;BME280;41573;51.446;-2.018;2023-07-13T09:07:17;100869.88;;;18.58;nan
55679;BME280;41573;51.446;-2.018;2023-07-13T09:10:27;100871.00;;;18.65;nan
55679;BME280;41573;51.446;-2.018;2023-07-13T09:15:41;100865.00;;;18.92;nan
55679;BME280;41573;51.446;-2.018;2023-07-13T09:18:19;100863.88;;;18.95;nan
55679;BME280;41573;51.446;-2.018;2023-07-13T09:20:59;100863.41;;;18.90;nan
55679;BME280;41573;51.446;-2.018;2023-07-13T09:23:29;100861.25;;;18.84;nan
55679;BME280;41573;51.446;-2.018;2023-07-13T09:26:22;100866.66;;;18.84;nan
55679;BME280;41573;51.446;-2.018;2023-07-13T09:28:51;100869.63;;;18.81;nan
55679;BME280;41573;51.446;-2.018;2023-07-13T09:31:19;100871.44;;;18.60;nan
55679;BME280;41573;51.446;-2.018;2023-07-13T09:33:47;100866.50;;;18.35;nan
55679;BME280;41573;51.446;-2.018;2023-07-13T09:36:25;100858.84;;;17.99;nan
55679;BME280;41573;51.446;-2.018;2023-07-13T09:41:43;100843.44;;;17.90;nan
55679;BME280;41573;51.446;-2.018;2023-07-13T09:44:13;100831.22;;;17.86;nan
55679;BME280;41573;51.446;-2.018;2023-07-13T09:47:01;100827.03;;;17.93;nan
55679;BME280;41573;51.446;-2.018;2023-07-13T09:49:27;100826.34;;;18.01;nan
55679;BME280;41573;51.446;-2.018;2023-07-13T09:52:02;100822.72;;;18.12;nan
55679;BME280;41573;51.446;-2.018;2023-07-13T09:54:29;100823.78;;;18.30;nan
55679;BME280;41573;51.446;-2.018;2023-07-13T09:56:58;100824.84;;;18.49;nan
55679;BME280;41573;51.446;-2.018;2023-07-13T09:59:40;100823.28;;;18.56;nan
55679;BME280;41573;51.446;-2.018;2023-07-13T10:02:38;100824.75;;;18.80;nan
55679;BME280;41573;51.446;-2.018;2023-07-13T10:05:13;100825.34;;;19.03;nan
55679;BME280;41573;51.446;-2.018;2023-07-13T10:07:42;100828.78;;;19.05;nan
55679;BME280;41573;51.446;-2.018;2023-07-13T10:10:20;100822.81;;;19.11;nan
55679;BME280;41573;51.446;-2.018;2023-07-13T10:12:46;100830.91;;;19.21;nan
55679;BME280;41573;51.446;-2.018;2023-07-13T10:15:23;100837.28;;;19.29;nan
55679;BME280;41573;51.446;-2.018;2023-07-13T10:17:55;100835.28;;;19.51;nan
55679;BME280;41573;51.446;-2.018;2023-07-13T10:20:21;100840.38;;;19.64;nan
55679;BME280;41573;51.446;-2.018;2023-07-13T10:23:11;100839.22;;;19.76;nan
55679;BME280;41573;51.446;-2.018;2023-07-13T10:25:41;100842.59;;;19.78;nan
55679;BME280;41573;51.446;-2.018;2023-07-13T10:30:42;100852.16;;;19.73;nan
55679;BME280;41573;51.446;-2.018;2023-07-13T10:33:12;100859.00;;;19.67;nan
55679;BME280;41573;51.446;-2.018;2023-07-13T10:35:41;100859.72;;;19.50;nan
55679;BME280;41573;51.446;-2.018;2023-07-13T10:38:13;100871.66;;;19.47;nan
55679;BME280;41573;51.446;-2.018;2023-07-13T10:40:42;100869.53;;;19.51;nan
55679;BME280;41573;51.446;-2.018;2023-07-13T10:43:21;100871.13;;;19.43;nan
55679;BME280;41573;51.446;-2.018;2023-07-13T10:45:49;100873.69;;;19.35;nan
55679;BME280;41573;51.446;-2.018;2023-07-13T10:48:15;100882.78;;;19.15;nan
55679;BME280;41573;51.446;-2.018;2023-07-13T10:50:44;100886.31;;;19.15;nan
55679;BME280;41573;51.446;-2.018;2023-07-13T10:53:22;100876.22;;;19.27;nan
55679;BME280;41573;51.446;-2.018;2023-07-13T11:00:50;100884.91;;;19.40;nan
55679;BME280;41573;51.446;-2.018;2023-07-13T11:03:20;100883.19;;;19.39;nan
55679;BME280;41573;51.446;-2.018;2023-07-13T11:05:51;100883.78;;;19.33;nan
55679;BME280;41573;51.446;-2.018;2023-07-13T11:10:56;100883.31;;;19.08;nan
55679;BME280;41573;51.446;-2.018;2023-07-13T11:18:39;100897.69;;;18.58;nan
55679;BME280;41573;51.446;-2.018;2023-07-13T11:21:16;100894.56;;;18.63;nan
55679;BME280;41573;51.446;-2.018;2023-07-13T11:23:44;100890.78;;;18.75;nan
55679;BME280;41573;51.446;-2.018;2023-07-13T11:26:43;100891.22;;;18.81;nan
55679;BME280;41573;51.446;-2.018;2023-07-13T11:31:40;100876.91;;;18.90;nan
55679;BME280;41573;51.446;-2.018;2023-07-13T11:34:13;100877.34;;;18.95;nan
55679;BME280;41573;51.446;-2.018;2023-07-13T11:36:42;100871.97;;;19.05;nan
55679;BME280;41573;51.446;-2.018;2023-07-13T11:39:41;100873.13;;;19.22;nan
55679;BME280;41573;51.446;-2.018;2023-07-13T11:42:09;100868.72;;;19.40;nan
55679;BME280;41573;51.446;-2.018;2023-07-13T11:44:42;100874.50;;;19.55;nan
55679;BME280;41573;51.446;-2.018;2023-07-13T11:47:11;100869.38;;;19.72;nan
55679;BME280;41573;51.446;-2.018;2023-07-13T11:49:44;100864.09;;;19.90;nan
55679;BME280;41573;51.446;-2.018;2023-07-13T11:52:17;100864.63;;;20.03;nan
55679;BME280;41573;51.446;-2.018;2023-07-13T11:54:49;100857.44;;;20.22;nan
55679;BME280;41573;51.446;-2.018;2023-07-13T11:57:29;100864.06;;;20.37;nan
55679;BME280;41573;51.446;-2.018;2023-07-13T12:00:11;100863.56;;;20.52;nan
55679;BME280;41573;51.446;-2.018;2023-07-13T12:02:42;100855.09;;;20.64;nan
55679;BME280;41573;51.446;-2.018;2023-07-13T12:05:13;100859.72;;;20.54;nan
55679;BME280;41573;51.446;-2.018;2023-07-13T12:07:40;100861.66;;;20.62;nan
55679;BME280;41573;51.446;-2.018;2023-07-13T12:12:37;100854.06;;;20.93;nan
55679;BME280;41573;51.446;-2.018;2023-07-13T12:15:08;100863.97;;;21.21;nan
55679;BME280;41573;51.446;-2.018;2023-07-13T12:17:35;100859.78;;;21.26;nan
55679;BME280;41573;51.446;-2.018;2023-07-13T12:20:03;100855.53;;;21.42;nan
55679;BME280;41573;51.446;-2.018;2023-07-13T12:22:31;100858.88;;;21.17;nan
55679;BME280;41573;51.446;-2.018;2023-07-13T12:24:59;100859.91;;;21.16;nan
55679;BME280;41573;51.446;-2.018;2023-07-13T12:27:26;100864.75;;;20.95;nan
55679;BME280;41573;51.446;-2.018;2023-07-13T12:30:04;100880.38;;;20.18;nan
55679;BME280;41573;51.446;-2.018;2023-07-13T12:32:31;100887.03;;;19.66;nan
55679;BME280;41573;51.446;-2.018;2023-07-13T12:35:12;100884.34;;;19.37;nan
55679;BME280;41573;51.446;-2.018;2023-07-13T12:37:42;100881.63;;;18.98;nan
55679;BME280;41573;51.446;-2.018;2023-07-13T12:40:14;100881.59;;;18.16;nan
55679;BME280;41573;51.446;-2.018;2023-07-13T12:42:40;100883.28;;;18.07;nan
55679;BME280;41573;51.446;-2.018;2023-07-13T12:45:22;100885.94;;;17.86;nan
55679;BME280;41573;51.446;-2.018;2023-07-13T12:47:53;100880.94;;;17.93;nan
55679;BME280;41573;51.446;-2.018;2023-07-13T12:50:21;100879.66;;;18.18;nan
55679;BME280;41573;51.446;-2.018;2023-07-13T12:53:02;100875.84;;;18.31;nan
55679;BME280;41573;51.446;-2.018;2023-07-13T12:55:41;100871.75;;;18.26;nan
55679;BME280;41573;51.446;-2.018;2023-07-13T12:58:16;100872.00;;;18.23;nan
55679;BME280;41573;51.446;-2.018;2023-07-13T13:00:48;100871.16;;;18.23;nan
55679;BME280;41573;51.446;-2.018;2023-07-13T13:03:22;100871.16;;;18.23;nan
55679;BME280;41573;51.446;-2.018;2023-07-13T13:05:49;100868.69;;;18.41;nan
55679;BME280;41573;51.446;-2.018;2023-07-13T13:08:14;100870.34;;;18.42;nan
55679;BME280;41573;51.446;-2.018;2023-07-13T13:10:40;100869.59;;;18.61;nan
55679;BME280;41573;51.446;-2.018;2023-07-13T13:13:05;100874.13;;;18.70;nan
55679;BME280;41573;51.446;-2.018;2023-07-13T13:15:31;100871.47;;;18.80;nan
55679;BME280;41573;51.446;-2.018;2023-07-13T13:17:58;100865.41;;;18.88;nan
55679;BME280;41573;51.446;-2.018;2023-07-13T13:20:24;100864.56;;;18.97;nan
55679;BME280;41573;51.446;-2.018;2023-07-13T13:22:51;100862.16;;;19.14;nan
55679;BME280;41573;51.446;-2.018;2023-07-13T13:25:18;100860.31;;;19.24;nan
55679;BME280;41573;51.446;-2.018;2023-07-13T13:27:45;100865.13;;;19.59;nan
55679;BME280;41573;51.446;-2.018;2023-07-13T13:30:11;100860.00;;;19.86;nan
55679;BME280;41573;51.446;-2.018;2023-07-13T13:32:39;100855.00;;;19.71;nan
55679;BME280;41573;51.446;-2.018;2023-07-13T13:35:05;100855.22;;;20.07;nan
55679;BME280;41573;51.446;-2.018;2023-07-13T13:37:31;100857.53;;;20.40;nan
55679;BME280;41573;51.446;-2.018;2023-07-13T13:39:57;100855.94;;;20.65;nan